createdAt,value
2023-06-11T00:03:48.710Z,97438.81
2023-06-11T00:13:52.009Z,97428.66
2023-06-11T00:23:54.584Z,97427.81
2023-06-11T00:33:57.113Z,97426.94
2023-06-11T00:43:59.431Z,97421.09
2023-06-11T00:54:01.694Z,97431.66
2023-06-11T01:04:06.803Z,97429.66
2023-06-11T01:14:14.534Z,97436.00
2023-06-11T01:24:22.865Z,97435.75
2023-06-11T01:34:26.899Z,97440.69
2023-06-11T01:44:29.715Z,97450.06
2023-06-11T01:54:31.991Z,97446.41
2023-06-11T02:04:34.234Z,97448.16
2023-06-11T02:14:36.699Z,97455.50
2023-06-11T02:24:38.949Z,97461.28
2023-06-11T02:34:41.330Z,97451.09
2023-06-11T02:44:43.605Z,97441.06
2023-06-11T02:54:46.161Z,97433.44
2023-06-11T03:04:48.391Z,97442.34
2023-06-11T03:14:51.177Z,97446.09
2023-06-11T03:24:53.433Z,97447.13
2023-06-11T03:34:55.702Z,97446.53
2023-06-11T03:44:57.883Z,97451.56
2023-06-11T03:55:00.253Z,97454.87
2023-06-11T04:05:02.904Z,97460.94
2023-06-11T04:15:05.641Z,97468.81
2023-06-11T04:25:08.578Z,97473.53
2023-06-11T04:35:13.700Z,97480.91
2023-06-11T04:45:20.388Z,97483.28
2023-06-11T04:55:26.421Z,97484.78
2023-06-11T05:05:29.166Z,97482.28
2023-06-11T05:15:31.751Z,97495.84
2023-06-11T05:25:34.414Z,97492.03
2023-06-11T05:35:37.152Z,97507.31
2023-06-11T05:45:47.536Z,97515.69
2023-06-11T05:55:52.252Z,97518.69
2023-06-11T06:05:57.465Z,97527.59
2023-06-11T06:16:02.143Z,97528.12
2023-06-11T06:26:05.221Z,97533.94
2023-06-11T06:36:07.944Z,97539.19
2023-06-11T06:46:11.638Z,97548.13
2023-06-11T06:56:14.979Z,97538.78
2023-06-11T07:06:17.679Z,97550.28
2023-06-11T07:16:20.589Z,97540.56
2023-06-11T07:26:23.574Z,97552.69
2023-06-11T07:36:25.943Z,97557.41
2023-06-11T07:46:28.329Z,97571.16
2023-06-11T07:56:31.001Z,97564.63
2023-06-11T08:06:33.628Z,97566.03
2023-06-11T08:16:37.000Z,97566.91
2023-06-11T08:26:40.025Z,97559.09
2023-06-11T08:36:43.228Z,97560.69
2023-06-11T08:46:46.870Z,97556.19
2023-06-11T08:56:50.113Z,97548.13
2023-06-11T09:06:54.003Z,97547.31
2023-06-11T09:16:56.678Z,97536.12
2023-06-11T09:27:00.223Z,97543.38
2023-06-11T09:37:05.629Z,97544.09
2023-06-11T09:47:12.804Z,97539.81
2023-06-11T09:57:17.919Z,97538.72
2023-06-11T10:07:22.700Z,97542.00
2023-06-11T10:17:25.886Z,97543.12
2023-06-11T10:27:43.104Z,97534.62
2023-06-11T10:37:46.059Z,97537.72
2023-06-11T10:47:52.288Z,97526.75
2023-06-11T10:57:56.118Z,97525.13
2023-06-11T11:08:02.818Z,97529.31
2023-06-11T11:18:05.945Z,97522.97
2023-06-11T11:28:10.947Z,97522.47
2023-06-11T11:38:17.192Z,97516.50
2023-06-11T11:48:20.680Z,97503.31
2023-06-11T11:58:25.215Z,97499.94
2023-06-11T12:08:30.593Z,97485.47
2023-06-11T12:18:36.239Z,97465.72
2023-06-11T12:28:42.654Z,97446.94
2023-06-11T12:38:47.362Z,97448.78
2023-06-11T12:48:50.490Z,97438.50
2023-06-11T12:58:53.416Z,97425.66
2023-06-11T13:08:56.198Z,97411.50
2023-06-11T13:19:05.158Z,97409.47
2023-06-11T13:29:11.002Z,97404.78
2023-06-11T13:39:15.232Z,97397.75
2023-06-11T13:49:19.173Z,97391.03
2023-06-11T13:59:26.204Z,97382.16
2023-06-11T14:09:29.629Z,97374.72
2023-06-11T14:29:38.969Z,97359.22
2023-06-11T14:39:45.420Z,97352.19
2023-06-11T14:49:48.511Z,97342.69
2023-06-11T14:59:51.899Z,97339.19
2023-06-11T15:09:54.898Z,97337.78
2023-06-11T15:20:00.150Z,97350.69
2023-06-11T15:30:05.654Z,97346.97
2023-06-11T15:40:10.264Z,97328.41
2023-06-11T15:50:14.330Z,97322.19
2023-06-11T16:00:18.167Z,97313.84
2023-06-11T16:10:21.416Z,97304.34
2023-06-11T16:20:27.638Z,97310.72
2023-06-11T16:30:31.103Z,97303.94
2023-06-11T16:40:34.738Z,97318.59
2023-06-11T16:50:37.698Z,97320.97
2023-06-11T17:00:40.600Z,97311.44
2023-06-11T17:10:46.447Z,97311.25
2023-06-11T17:20:49.625Z,97299.75
2023-06-11T17:30:53.463Z,97293.88
2023-06-11T17:40:57.019Z,97295.13
2023-06-11T17:51:00.312Z,97299.34
2023-06-11T18:01:04.416Z,97297.00
2023-06-11T18:11:08.143Z,97302.19
2023-06-11T18:21:11.719Z,97311.16
2023-06-11T18:31:17.720Z,97312.16
2023-06-11T18:41:24.428Z,97321.75
2023-06-11T18:51:29.143Z,97325.19
2023-06-11T19:01:33.350Z,97319.09
2023-06-11T19:11:36.653Z,97324.50
2023-06-11T19:31:43.602Z,97331.53
2023-06-11T19:41:46.799Z,97335.34
2023-06-11T19:51:50.378Z,97353.19
2023-06-11T20:01:55.479Z,97364.50
2023-06-11T20:12:06.018Z,97370.75
2023-06-11T20:22:09.179Z,97387.97
2023-06-11T20:32:14.214Z,97400.31
2023-06-11T20:42:17.981Z,97405.81
2023-06-11T20:52:21.616Z,97411.72
2023-06-11T21:02:24.827Z,97421.47
2023-06-11T21:12:29.996Z,97419.47
2023-06-11T21:22:33.131Z,97414.53
2023-06-11T21:32:36.309Z,97416.84
2023-06-11T21:42:40.288Z,97402.03
2023-06-11T21:52:43.834Z,97391.41
2023-06-11T22:02:46.505Z,97392.59
2023-06-11T22:12:50.574Z,97387.94
2023-06-11T22:22:53.440Z,97388.94
2023-06-11T22:32:59.356Z,97396.66
2023-06-11T22:43:04.157Z,97390.12
2023-06-11T22:53:06.887Z,97400.00
2023-06-11T23:03:10.908Z,97402.31
2023-06-11T23:13:13.492Z,97404.25
2023-06-11T23:23:17.464Z,97411.00
2023-06-11T23:33:20.263Z,97410.97
2023-06-11T23:43:22.740Z,97416.00
2023-06-11T23:53:26.846Z,97423.78
